Time;durP1;ratioP1;P1;durP2;ratioP2;P2;SDS_P1;SDS_P2;PMS_P1;PMS_P2;Temp;Humidity;BMP_temperature;BMP_pressure;BME280_temperature;BME280_humidity;BME280_pressure;Samples;Min_cycle;Max_cycle;Signal;HPM_P1;HPM_P2
2021/05/05 00:02:04;;;;;;;9.78;1.70;;;9.50;99.90;;;;;;1858168;77;21496;-73
2021/05/05 00:04:32;;;;;;;8.38;1.90;;;9.50;99.90;;;;;;1855758;77;21532;-74
2021/05/05 00:07:00;;;;;;;20.50;3.20;;;9.60;99.90;;;;;;1855195;75;21255;-72
2021/05/05 00:09:27;;;;;;;13.80;2.75;;;9.50;99.90;;;;;;1866438;75;21103;-72
2021/05/05 00:11:55;;;;;;;9.50;2.42;;;9.50;99.90;;;;;;1886087;75;21155;-72
2021/05/05 00:14:23;;;;;;;9.45;2.15;;;9.40;99.90;;;;;;1885226;76;21091;-73
2021/05/05 00:16:50;;;;;;;12.28;3.20;;;9.40;99.90;;;;;;1867396;75;21130;-74
2021/05/05 00:19:18;;;;;;;9.15;2.08;;;9.30;99.90;;;;;;1854147;76;21103;-73
2021/05/05 00:21:45;;;;;;;16.27;2.83;;;9.20;99.90;;;;;;1874303;75;21179;-72
2021/05/05 00:24:14;;;;;;;12.03;2.30;;;9.10;99.90;;;;;;1875363;75;21070;-72
2021/05/05 00:26:42;;;;;;;12.05;2.40;;;9.10;99.90;;;;;;1884403;74;21197;-72
2021/05/05 00:29:09;;;;;;;14.50;2.30;;;9.10;99.90;;;;;;1864575;75;21106;-72
2021/05/05 00:31:38;;;;;;;9.40;2.22;;;9.10;99.90;;;;;;1856209;75;21165;-72
2021/05/05 00:34:05;;;;;;;5.92;1.92;;;9.10;99.90;;;;;;1871053;75;21138;-71
2021/05/05 00:36:33;;;;;;;7.22;2.25;;;9.10;99.90;;;;;;1883962;75;21119;-71
2021/05/05 00:39:01;;;;;;;10.98;2.22;;;8.90;99.90;;;;;;1877221;75;21095;-72
2021/05/05 00:41:28;;;;;;;10.65;2.25;;;8.90;99.90;;;;;;1868548;75;21186;-73
2021/05/05 00:43:56;;;;;;;7.55;2.02;;;8.80;99.90;;;;;;1857062;75;21162;-72
2021/05/05 00:46:23;;;;;;;6.10;1.90;;;8.90;99.90;;;;;;1873405;75;21134;-72
2021/05/05 00:48:51;;;;;;;20.97;2.67;;;8.80;99.90;;;;;;1858670;75;21162;-73
2021/05/05 00:51:18;;;;;;;16.82;2.90;;;8.90;99.90;;;;;;1883544;75;21087;-72
2021/05/05 00:53:46;;;;;;;8.08;1.90;;;8.90;99.90;;;;;;1857930;76;21067;-72
2021/05/05 00:56:13;;;;;;;7.72;2.20;;;8.80;99.90;;;;;;1877635;75;21575;-71
2021/05/05 00:58:41;;;;;;;10.55;2.40;;;8.90;99.90;;;;;;1869680;74;21588;-73
2021/05/05 01:01:08;;;;;;;8.03;1.95;;;8.80;99.90;;;;;;1859644;75;21067;-72
2021/05/05 01:03:36;;;;;;;9.28;2.42;;;8.90;99.90;;;;;;1884129;75;21113;-73
2021/05/05 01:06:04;;;;;;;7.53;1.90;;;8.80;99.90;;;;;;1881567;75;21133;-72
2021/05/05 01:08:32;;;;;;;7.72;1.95;;;8.80;99.90;;;;;;1867648;75;21649;-73
2021/05/05 01:11:01;;;;;;;8.70;2.00;;;8.90;99.90;;;;;;1869143;75;21110;-72
2021/05/05 01:13:29;;;;;;;8.10;2.05;;;9.00;99.90;;;;;;1861683;75;21106;-73
2021/05/05 01:15:57;;;;;;;9.13;2.02;;;9.00;99.90;;;;;;1882423;75;21138;-72
2021/05/05 01:18:24;;;;;;;7.55;1.90;;;8.90;99.90;;;;;;1858753;75;21080;-73
2021/05/05 01:20:58;;;;;;;7.35;1.70;;;8.90;99.90;;;;;;1862003;75;21185;-72
2021/05/05 01:23:27;;;;;;;7.12;1.80;;;8.90;99.90;;;;;;1860822;75;21137;-72
2021/05/05 01:25:55;;;;;;;9.68;2.50;;;8.80;99.90;;;;;;1872225;75;21212;-72
2021/05/05 01:28:23;;;;;;;10.10;2.40;;;8.90;99.90;;;;;;1873066;75;21575;-73
2021/05/05 01:30:51;;;;;;;9.90;1.92;;;8.90;99.90;;;;;;1881316;75;21126;-73
2021/05/05 01:33:19;;;;;;;14.18;2.17;;;8.90;99.90;;;;;;1868266;75;21168;-70
2021/05/05 01:35:49;;;;;;;6.58;1.62;;;8.70;99.90;;;;;;1859882;75;21112;-73
2021/05/05 01:38:18;;;;;;;8.60;1.40;;;8.70;99.90;;;;;;1878649;75;21031;-72
2021/05/05 01:40:46;;;;;;;9.93;1.80;;;8.80;99.90;;;;;;1875981;75;21184;-72
2021/05/05 01:43:14;;;;;;;11.20;2.47;;;8.80;99.90;;;;;;1877537;75;21136;-72
2021/05/05 01:45:41;;;;;;;12.28;2.08;;;8.90;99.90;;;;;;1875961;75;21617;-72
2021/05/05 01:48:10;;;;;;;8.45;1.55;;;8.80;99.90;;;;;;1878304;75;21973;-73
2021/05/05 01:50:38;;;;;;;11.60;1.72;;;8.80;99.90;;;;;;1859165;75;22951;-71
2021/05/05 01:53:07;;;;;;;8.78;1.72;;;8.80;99.90;;;;;;1889408;75;21379;-72
2021/05/05 01:55:35;;;;;;;14.13;2.20;;;8.70;99.90;;;;;;1877973;75;21135;-72
2021/05/05 01:58:02;;;;;;;8.03;2.00;;;8.70;99.90;;;;;;1881918;74;21578;-72
2021/05/05 02:00:31;;;;;;;9.93;1.70;;;8.80;99.90;;;;;;1884988;75;21050;-72
2021/05/05 02:02:59;;;;;;;11.80;2.08;;;8.80;99.90;;;;;;1865174;75;21167;-72
2021/05/05 02:05:26;;;;;;;14.03;1.98;;;8.80;99.90;;;;;;1874561;75;21152;-72
2021/05/05 02:07:54;;;;;;;11.88;2.33;;;8.80;99.90;;;;;;1883393;75;21485;-72
2021/05/05 02:10:21;;;;;;;13.35;1.75;;;8.80;99.90;;;;;;1860501;75;21147;-72
2021/05/05 02:12:49;;;;;;;11.93;2.17;;;8.80;99.90;;;;;;1881752;75;21623;-72
2021/05/05 02:15:19;;;;;;;12.25;1.95;;;8.80;99.90;;;;;;1857705;75;21107;-73
2021/05/05 02:17:47;;;;;;;12.88;2.67;;;8.80;99.90;;;;;;1882959;75;21147;-72
2021/05/05 02:20:17;;;;;;;14.25;1.98;;;8.80;99.90;;;;;;1876072;75;21026;-73
2021/05/05 02:22:45;;;;;;;10.63;1.87;;;8.80;99.90;;;;;;1866468;75;21127;-73
2021/05/05 02:25:12;;;;;;;5.30;1.40;;;8.80;99.90;;;;;;1872324;75;21623;-73
2021/05/05 02:27:42;;;;;;;10.58;1.50;;;8.80;99.90;;;;;;1860722;75;21551;-71
2021/05/05 02:30:11;;;;;;;6.80;1.80;;;8.70;99.90;;;;;;1868924;75;21595;-74
2021/05/05 02:32:41;;;;;;;12.15;1.57;;;8.60;99.90;;;;;;1864958;75;21044;-72
2021/05/05 02:35:10;;;;;;;8.23;2.08;;;8.60;99.90;;;;;;1884646;75;21027;-72
2021/05/05 02:37:39;;;;;;;9.60;1.67;;;8.70;99.90;;;;;;1886231;76;21124;-71
2021/05/05 02:40:08;;;;;;;7.22;1.70;;;8.70;99.90;;;;;;1861812;75;21039;-73
2021/05/05 02:42:35;;;;;;;5.70;1.70;;;8.70;99.90;;;;;;1876022;76;21042;-72
2021/05/05 02:45:04;;;;;;;9.68;2.30;;;8.80;99.90;;;;;;1876768;75;21087;-72
2021/05/05 02:47:32;;;;;;;12.00;2.50;;;8.80;99.90;;;;;;1894059;75;21125;-72
2021/05/05 02:49:59;;;;;;;10.78;2.22;;;8.70;99.90;;;;;;1857752;75;21518;-72
2021/05/05 02:52:27;;;;;;;12.25;2.02;;;8.60;99.90;;;;;;1862280;75;21011;-73
2021/05/05 02:54:54;;;;;;;10.50;2.25;;;8.40;99.90;;;;;;1855290;76;21110;-72
2021/05/05 02:57:22;;;;;;;14.85;2.58;;;8.40;99.90;;;;;;1882508;75;21066;-72
2021/05/05 02:59:49;;;;;;;11.30;2.47;;;8.40;99.90;;;;;;1875527;75;21133;-74
2021/05/05 03:02:17;;;;;;;10.28;2.83;;;8.40;99.90;;;;;;1874371;75;21599;-73
2021/05/05 03:04:45;;;;;;;12.78;2.22;;;8.50;99.90;;;;;;1862246;75;21560;-72
2021/05/05 03:07:12;;;;;;;12.35;2.50;;;8.50;99.90;;;;;;1879387;74;21079;-71
2021/05/05 03:09:40;;;;;;;11.50;2.15;;;8.50;99.90;;;;;;1856180;75;21095;-71
2021/05/05 03:12:07;;;;;;;12.10;2.37;;;8.50;99.90;;;;;;1872321;75;21100;-71
2021/05/05 03:14:35;;;;;;;16.80;3.62;;;8.40;99.90;;;;;;1855246;75;21642;-71
2021/05/05 03:17:03;;;;;;;16.97;2.75;;;8.40;99.90;;;;;;1868582;75;21091;-71
2021/05/05 03:19:30;;;;;;;14.47;3.10;;;8.40;99.90;;;;;;1871422;75;21059;-72
2021/05/05 03:21:58;;;;;;;14.53;2.55;;;8.50;99.90;;;;;;1854898;76;21172;-72
2021/05/05 03:24:25;;;;;;;13.25;2.87;;;8.50;99.90;;;;;;1874464;75;21093;-72
2021/05/05 03:26:53;;;;;;;13.50;2.60;;;8.40;99.90;;;;;;1875046;75;21381;-70
2021/05/05 03:29:20;;;;;;;9.75;2.02;;;8.40;99.90;;;;;;1857223;75;21065;-71
2021/05/05 03:31:48;;;;;;;12.73;2.22;;;8.50;99.90;;;;;;1864739;75;21087;-70
2021/05/05 03:34:15;;;;;;;12.23;2.00;;;8.60;99.90;;;;;;1867116;76;21104;-71
2021/05/05 03:36:43;;;;;;;10.58;2.52;;;8.70;99.90;;;;;;1868267;75;21379;-70
2021/05/05 03:39:10;;;;;;;13.13;2.27;;;8.70;99.90;;;;;;1872160;75;21101;-72
2021/05/05 03:41:38;;;;;;;11.10;2.47;;;8.70;99.90;;;;;;1858528;75;21084;-71
2021/05/05 03:44:08;;;;;;;15.20;2.35;;;8.80;99.90;;;;;;1868372;75;21111;-71
2021/05/05 03:46:37;;;;;;;14.95;2.75;;;8.70;99.90;;;;;;1873631;75;21097;-71
2021/05/05 03:49:07;;;;;;;11.55;2.25;;;8.60;99.90;;;;;;1875791;75;21092;-71
2021/05/05 03:51:35;;;;;;;11.63;2.40;;;8.60;99.90;;;;;;1858402;75;21100;-71
2021/05/05 03:54:02;;;;;;;10.28;2.33;;;8.60;99.90;;;;;;1855559;75;21106;-73
2021/05/05 03:56:30;;;;;;;9.03;2.12;;;8.60;99.90;;;;;;1879059;75;21646;-73
2021/05/05 03:58:57;;;;;;;9.50;2.20;;;8.70;99.90;;;;;;1886968;75;21113;-72
2021/05/05 04:01:25;;;;;;;18.30;3.20;;;8.60;99.90;;;;;;1868474;75;21177;-72
2021/05/05 04:03:52;;;;;;;10.80;2.45;;;8.60;99.90;;;;;;1859455;75;21095;-71
2021/05/05 04:06:20;;;;;;;13.58;2.50;;;8.50;99.90;;;;;;1887041;75;21142;-72
2021/05/05 04:08:47;;;;;;;13.50;2.80;;;8.50;99.90;;;;;;1865868;75;22152;-71
2021/05/05 04:11:15;;;;;;;9.78;2.47;;;8.40;99.90;;;;;;1870170;75;21160;-72
2021/05/05 04:13:42;;;;;;;12.55;2.05;;;8.40;99.90;;;;;;1870219;75;21102;-71
2021/05/05 04:16:10;;;;;;;12.18;2.72;;;8.60;99.90;;;;;;1860564;75;21565;-72
2021/05/05 04:18:37;;;;;;;11.83;2.00;;;8.60;99.90;;;;;;1875488;75;21091;-71
2021/05/05 04:21:07;;;;;;;12.90;2.30;;;8.50;99.90;;;;;;1858756;75;21166;-71
2021/05/05 04:23:36;;;;;;;18.10;2.85;;;8.40;99.90;;;;;;1855963;76;21043;-71
2021/05/05 04:26:05;;;;;;;11.50;2.72;;;8.40;99.90;;;;;;1874965;75;21166;-71
2021/05/05 04:28:33;;;;;;;16.62;2.67;;;8.50;99.90;;;;;;1869738;75;21043;-71
2021/05/05 04:31:00;;;;;;;11.95;2.55;;;8.60;99.90;;;;;;1887044;75;21031;-71
2021/05/05 04:33:28;;;;;;;11.22;2.52;;;8.50;99.90;;;;;;1891112;75;21613;-70
2021/05/05 04:35:55;;;;;;;14.68;2.58;;;8.50;99.90;;;;;;1857895;76;21679;-71
2021/05/05 04:38:23;;;;;;;12.43;2.55;;;8.50;99.90;;;;;;1873741;75;21059;-71
2021/05/05 04:40:50;;;;;;;10.98;2.12;;;8.60;99.90;;;;;;1860768;75;21091;-71
2021/05/05 04:43:18;;;;;;;10.53;2.45;;;8.50;99.90;;;;;;1854328;76;21104;-71
2021/05/05 04:45:45;;;;;;;13.38;2.42;;;8.50;99.90;;;;;;1867913;75;21103;-71
2021/05/05 04:48:13;;;;;;;14.33;2.05;;;8.40;99.90;;;;;;1873157;74;21638;-72
2021/05/05 04:50:41;;;;;;;11.70;2.50;;;8.40;99.90;;;;;;1858835;75;21200;-72
2021/05/05 04:53:09;;;;;;;19.77;3.27;;;8.40;99.90;;;;;;1856034;75;21084;-71
2021/05/05 04:55:37;;;;;;;13.53;3.30;;;8.40;99.90;;;;;;1874350;75;21189;-70
2021/05/05 04:58:04;;;;;;;15.95;2.50;;;8.60;99.90;;;;;;1857775;75;21193;-69
2021/05/05 05:00:33;;;;;;;11.15;2.65;;;8.60;99.90;;;;;;1877017;75;21007;-70
2021/05/05 05:03:01;;;;;;;13.68;2.90;;;8.50;99.90;;;;;;1873966;75;21142;-73
2021/05/05 05:05:28;;;;;;;15.10;2.20;;;8.60;99.90;;;;;;1858915;76;21153;-72
2021/05/05 05:07:58;;;;;;;13.98;2.65;;;8.60;99.90;;;;;;1892440;73;21524;-80
2021/05/05 05:10:25;;;;;;;18.17;2.85;;;8.50;99.90;;;;;;1897943;74;21599;-79
2021/05/05 05:12:54;;;;;;;11.95;2.60;;;8.50;99.90;;;;;;1905741;74;21536;-79
2021/05/05 05:15:22;;;;;;;14.47;3.22;;;8.60;99.90;;;;;;1922500;74;21091;-77
2021/05/05 05:17:50;;;;;;;18.98;3.58;;;8.60;99.90;;;;;;1897103;74;21068;-79
2021/05/05 05:20:18;;;;;;;13.10;2.47;;;8.60;99.90;;;;;;1936910;73;21026;-78
2021/05/05 05:22:45;;;;;;;12.10;2.67;;;8.70;99.90;;;;;;1936141;72;21077;-79
2021/05/05 05:25:13;;;;;;;14.45;2.27;;;8.70;99.90;;;;;;1928109;73;21120;-79
2021/05/05 05:27:41;;;;;;;13.28;3.25;;;8.70;99.90;;;;;;1939305;73;21107;-79
2021/05/05 05:30:10;;;;;;;10.03;2.40;;;8.70;99.90;;;;;;1943923;72;21203;-79
2021/05/05 05:32:38;;;;;;;10.72;2.33;;;8.70;99.90;;;;;;1952997;73;21561;-78
2021/05/05 05:35:06;;;;;;;15.43;2.85;;;8.70;99.90;;;;;;1932965;73;21074;-80
2021/05/05 05:37:33;;;;;;;17.82;2.90;;;8.80;99.90;;;;;;1945677;73;21126;-77
2021/05/05 05:40:01;;;;;;;15.65;2.80;;;8.80;99.90;;;;;;1938582;73;22317;-77
2021/05/05 05:42:28;;;;;;;11.93;2.60;;;8.70;99.90;;;;;;1946041;73;21540;-78
2021/05/05 05:44:56;;;;;;;14.28;2.60;;;8.70;99.90;;;;;;1938383;73;21173;-78
2021/05/05 05:47:23;;;;;;;12.95;3.00;;;8.80;99.90;;;;;;1937215;73;21352;-79
2021/05/05 05:49:52;;;;;;;14.75;2.67;;;8.80;99.90;;;;;;1930813;73;21103;-79
2021/05/05 05:52:19;;;;;;;17.12;3.08;;;8.70;99.90;;;;;;1934292;73;21152;-80
2021/05/05 05:54:47;;;;;;;14.63;2.77;;;8.70;99.90;;;;;;1938467;73;21089;-80
2021/05/05 05:57:16;;;;;;;12.78;2.77;;;8.70;99.90;;;;;;1951304;73;21057;-80
2021/05/05 05:59:45;;;;;;;13.40;3.22;;;8.70;99.90;;;;;;1947495;73;21557;-79
2021/05/05 06:02:12;;;;;;;13.55;2.45;;;8.80;99.90;;;;;;1954797;73;21082;-79
2021/05/05 06:04:40;;;;;;;18.23;3.25;;;8.80;99.90;;;;;;1942666;73;21074;-74
2021/05/05 06:07:07;;;;;;;14.13;3.17;;;8.80;99.90;;;;;;1941252;72;21136;-76
2021/05/05 06:09:35;;;;;;;16.87;3.15;;;8.80;99.90;;;;;;1946096;73;21094;-76
2021/05/05 06:12:02;;;;;;;13.90;3.47;;;8.70;99.90;;;;;;1945130;73;21556;-75
2021/05/05 06:14:30;;;;;;;18.65;3.65;;;8.80;99.90;;;;;;1937470;73;21642;-75
2021/05/05 06:16:58;;;;;;;20.43;3.25;;;8.90;99.90;;;;;;1952562;73;21064;-76
2021/05/05 06:19:25;;;;;;;16.87;3.20;;;8.80;99.90;;;;;;1949527;72;21339;-77
2021/05/05 06:21:53;;;;;;;18.07;3.27;;;8.80;99.90;;;;;;1951807;72;21085;-76
2021/05/05 06:24:20;;;;;;;15.30;2.92;;;8.80;99.90;;;;;;1951361;72;21085;-75
2021/05/05 06:26:48;;;;;;;17.25;3.33;;;8.80;99.90;;;;;;1943157;73;21156;-77
2021/05/05 06:29:17;;;;;;;16.02;3.30;;;8.80;99.90;;;;;;1940468;72;21144;-77
2021/05/05 06:31:44;;;;;;;18.37;3.62;;;8.80;99.90;;;;;;1948087;73;21131;-75
2021/05/05 06:34:12;;;;;;;17.82;3.75;;;8.80;99.90;;;;;;1940057;72;21085;-76
2021/05/05 06:36:40;;;;;;;19.30;3.25;;;8.70;99.90;;;;;;1936833;72;21106;-77
2021/05/05 06:39:08;;;;;;;16.20;2.92;;;8.70;99.90;;;;;;1944782;73;21186;-78
2021/05/05 06:41:36;;;;;;;14.50;2.70;;;8.70;99.90;;;;;;1941130;72;21103;-77
2021/05/05 06:44:04;;;;;;;19.35;3.45;;;8.80;99.90;;;;;;1945399;73;21114;-75
2021/05/05 06:46:33;;;;;;;19.98;3.75;;;8.80;99.90;;;;;;1938828;72;21126;-75
2021/05/05 06:49:01;;;;;;;21.80;3.72;;;8.70;99.90;;;;;;1939604;73;21205;-75
2021/05/05 06:51:29;;;;;;;19.73;3.40;;;8.60;99.90;;;;;;1944750;72;21207;-75
2021/05/05 06:53:56;;;;;;;14.95;3.42;;;8.60;99.90;;;;;;1946019;73;21162;-76
2021/05/05 06:56:24;;;;;;;16.30;2.90;;;8.70;99.90;;;;;;1947787;72;21086;-76
2021/05/05 06:58:51;;;;;;;19.23;3.05;;;8.70;99.90;;;;;;1941581;72;21161;-74
2021/05/05 07:01:19;;;;;;;23.32;3.27;;;8.70;99.90;;;;;;1937519;73;21113;-76
2021/05/05 07:03:46;;;;;;;20.68;3.25;;;8.80;99.90;;;;;;1951539;72;21139;-75
2021/05/05 07:06:14;;;;;;;14.20;2.70;;;8.90;99.90;;;;;;1942012;72;21109;-79
2021/05/05 07:08:41;;;;;;;20.20;2.85;;;9.00;99.90;;;;;;1941839;72;21536;-76
2021/05/05 07:11:09;;;;;;;20.35;3.02;;;9.00;99.90;;;;;;1944626;72;21143;-75
2021/05/05 07:13:36;;;;;;;22.90;4.08;;;9.00;99.90;;;;;;1954745;73;21054;-78
2021/05/05 07:16:04;;;;;;;24.77;3.77;;;9.10;99.90;;;;;;1942085;72;21153;-78
2021/05/05 07:18:31;;;;;;;14.83;3.00;;;9.20;99.90;;;;;;1934009;73;22186;-77
2021/05/05 07:20:59;;;;;;;15.30;3.50;;;9.20;99.90;;;;;;1933551;72;21071;-76
2021/05/05 07:23:28;;;;;;;16.80;3.27;;;9.30;99.90;;;;;;1929144;73;21085;-78
2021/05/05 07:25:55;;;;;;;22.02;3.25;;;9.30;99.90;;;;;;1936762;72;21569;-77
2021/05/05 07:28:23;;;;;;;15.15;2.92;;;9.40;99.90;;;;;;1942554;72;21094;-77
2021/05/05 07:30:50;;;;;;;16.12;3.00;;;9.50;99.90;;;;;;1954946;72;21098;-77
2021/05/05 07:33:18;;;;;;;14.38;3.15;;;9.60;99.90;;;;;;1944882;72;21083;-78
2021/05/05 07:35:52;;;;;;;23.47;3.75;;;9.60;99.90;;;;;;1948081;72;21081;-78
2021/05/05 07:46:42;;;;;;;22.35;3.65;;;9.50;99.90;;;;;;1945316;72;21154;-75
2021/05/05 07:49:04;;;;;;;21.80;4.92;;;9.50;99.90;;;;;;1941169;73;21220;-75
2021/05/05 07:51:31;;;;;;;23.45;3.62;;;9.50;99.90;;;;;;1950776;72;21195;-75
2021/05/05 07:53:59;;;;;;;17.02;3.55;;;9.50;99.90;;;;;;1951184;73;21191;-77
2021/05/05 07:56:26;;;;;;;16.02;2.92;;;9.40;99.90;;;;;;1950874;72;21579;-75
2021/05/05 07:58:54;;;;;;;20.85;3.27;;;9.50;99.90;;;;;;1946295;73;21171;-77
2021/05/05 08:01:21;;;;;;;16.95;3.47;;;9.60;99.90;;;;;;1945871;72;21054;-76
2021/05/05 08:03:49;;;;;;;23.45;3.87;;;9.70;99.90;;;;;;1951349;73;21093;-77
2021/05/05 08:06:16;;;;;;;15.88;2.72;;;9.70;99.90;;;;;;1952023;72;21057;-77
2021/05/05 08:08:44;;;;;;;18.85;3.92;;;9.80;99.90;;;;;;1940590;73;22177;-78
2021/05/05 08:11:11;;;;;;;15.28;3.00;;;9.80;99.90;;;;;;1950122;72;21606;-76
2021/05/05 08:13:40;;;;;;;18.73;3.98;;;9.70;99.90;;;;;;1951349;72;21070;-78
2021/05/05 08:16:08;;;;;;;24.57;3.50;;;9.80;99.90;;;;;;1940137;72;21175;-76
2021/05/05 08:18:36;;;;;;;18.25;3.25;;;9.90;99.90;;;;;;1947171;73;21125;-75
2021/05/05 08:21:07;;;;;;;16.77;3.00;;;9.90;99.90;;;;;;1952831;72;21074;-74
2021/05/05 08:23:35;;;;;;;14.80;3.08;;;9.90;99.90;;;;;;1947631;73;21082;-74
2021/05/05 08:26:04;;;;;;;16.75;3.65;;;9.80;99.90;;;;;;1947908;72;21090;-74
2021/05/05 08:28:34;;;;;;;19.57;3.33;;;9.80;99.90;;;;;;1956553;72;21150;-75
2021/05/05 08:31:02;;;;;;;14.65;3.25;;;9.80;99.90;;;;;;1952409;72;21093;-75
2021/05/05 08:33:29;;;;;;;15.30;3.08;;;9.80;99.90;;;;;;1953726;72;21058;-76
2021/05/05 08:35:57;;;;;;;15.72;2.72;;;9.90;99.90;;;;;;1941715;73;21101;-75
2021/05/05 08:38:25;;;;;;;16.62;3.65;;;9.90;99.90;;;;;;1942545;72;21153;-75
2021/05/05 08:40:53;;;;;;;17.75;3.12;;;10.00;99.90;;;;;;1953139;73;21121;-75
2021/05/05 08:43:21;;;;;;;17.05;3.30;;;10.10;99.90;;;;;;1939703;72;21117;-75
2021/05/05 08:45:49;;;;;;;15.78;3.40;;;10.20;99.90;;;;;;1953868;73;21215;-76
2021/05/05 08:48:22;;;;;;;13.53;3.15;;;10.20;99.90;;;;;;1946960;72;21141;-76
2021/05/05 08:50:50;;;;;;;12.25;2.83;;;10.30;99.90;;;;;;1946349;72;21174;-77
2021/05/05 08:53:17;;;;;;;20.97;3.52;;;10.30;99.90;;;;;;1946125;73;21157;-76
2021/05/05 08:55:45;;;;;;;13.28;2.60;;;10.50;99.90;;;;;;1944997;73;21078;-76
2021/05/05 08:58:12;;;;;;;16.12;3.10;;;10.60;99.90;;;;;;1943907;72;21634;-75
2021/05/05 09:00:40;;;;;;;19.87;2.85;;;10.70;99.90;;;;;;1945877;72;21626;-76
2021/05/05 09:03:09;;;;;;;11.33;2.47;;;10.60;99.90;;;;;;1955428;73;21426;-76
2021/05/05 09:05:54;;;;;;;14.95;3.00;;;10.60;99.90;;;;;;1935413;73;21087;-74
2021/05/05 09:08:22;;;;;;;14.53;3.22;;;10.50;99.90;;;;;;1939830;73;21090;-77
2021/05/05 09:10:58;;;;;;;14.40;2.80;;;10.30;99.90;;;;;;1943337;72;21188;-75
2021/05/05 09:13:48;;;;;;;12.23;2.30;;;10.30;99.90;;;;;;1939162;73;21035;-75
2021/05/05 09:16:18;;;;;;;16.23;3.10;;;10.10;99.90;;;;;;1938788;73;21162;-77
2021/05/05 09:19:03;;;;;;;17.67;2.87;;;10.00;99.90;;;;;;1946212;72;21529;-76
2021/05/05 09:21:34;;;;;;;11.03;2.52;;;10.10;99.90;;;;;;1936948;73;21062;-75
2021/05/05 09:24:19;;;;;;;16.77;2.45;;;10.20;99.90;;;;;;1951527;72;21058;-76
2021/05/05 09:27:09;;;;;;;11.80;2.25;;;10.30;99.90;;;;;;1949826;73;21598;-77
2021/05/05 09:29:42;;;;;;;13.20;2.65;;;10.50;99.90;;;;;;1927828;73;21019;-76
2021/05/05 09:32:11;;;;;;;9.18;2.35;;;10.50;99.90;;;;;;1939985;72;21159;-77
2021/05/05 09:34:38;;;;;;;21.85;3.58;;;10.50;99.90;;;;;;1947272;73;20999;-76
2021/05/05 09:37:08;;;;;;;9.70;2.60;;;10.70;99.90;;;;;;1947985;73;21168;-76
2021/05/05 09:39:40;;;;;;;13.90;2.62;;;10.70;99.90;;;;;;1925247;73;21103;-76
2021/05/05 09:42:20;;;;;;;16.12;2.85;;;10.80;99.90;;;;;;1938179;73;21083;-76
2021/05/05 09:45:08;;;;;;;16.67;3.37;;;10.80;99.90;;;;;;1944919;73;21085;-76
2021/05/05 09:47:54;;;;;;;13.55;2.30;;;10.70;99.90;;;;;;1934235;72;21152;-75
2021/05/05 09:50:33;;;;;;;8.75;2.20;;;10.70;99.90;;;;;;1938977;72;21604;-76
2021/05/05 09:53:19;;;;;;;16.30;2.47;;;10.70;99.90;;;;;;1925232;73;21551;-76
2021/05/05 09:55:49;;;;;;;10.63;2.35;;;10.80;99.90;;;;;;1942940;73;21532;-74
2021/05/05 09:58:29;;;;;;;11.48;2.90;;;10.80;99.90;;;;;;1934043;72;21180;-76
2021/05/05 10:01:10;;;;;;;12.05;2.65;;;10.70;99.90;;;;;;1943497;72;21082;-78
2021/05/05 10:03:43;;;;;;;13.40;2.80;;;10.60;99.90;;;;;;1944726;72;21086;-77
2021/05/05 10:06:22;;;;;;;14.78;3.20;;;10.60;99.90;;;;;;1932953;72;21570;-82
2021/05/05 10:08:52;;;;;;;7.92;1.77;;;10.40;99.90;;;;;;1951400;72;21109;-80
2021/05/05 10:11:31;;;;;;;6.05;1.62;;;10.40;99.90;;;;;;1935097;73;21537;-82
2021/05/05 10:14:07;;;;;;;5.87;1.35;;;10.30;99.90;;;;;;1948315;72;21397;-76
2021/05/05 10:16:39;;;;;;;6.15;1.50;;;10.20;99.90;;;;;;1950961;72;21140;-77
2021/05/05 10:19:10;;;;;;;9.73;1.90;;;10.30;99.90;;;;;;1934599;72;21133;-75
2021/05/05 10:21:53;;;;;;;8.58;1.90;;;10.40;99.90;;;;;;1943600;72;21124;-77
2021/05/05 10:24:21;;;;;;;;;;;10.40;99.90;;;;;;1906886;73;21078;-74
2021/05/05 10:26:49;;;;;;;9.05;2.15;;;10.40;99.90;;;;;;1946434;72;20178;-75
2021/05/05 10:29:17;;;;;;;5.42;1.50;;;10.40;99.90;;;;;;1937252;72;21068;-75
2021/05/05 10:31:51;;;;;;;7.78;1.65;;;10.40;99.90;;;;;;1938055;72;21097;-74
2021/05/05 10:34:26;;;;;;;4.00;1.15;;;10.50;99.90;;;;;;1932528;73;21019;-73
2021/05/05 10:36:55;;;;;;;7.60;1.27;;;10.60;99.90;;;;;;1943979;72;21011;-73
2021/05/05 10:39:26;;;;;;;3.92;1.10;;;10.70;99.90;;;;;;1951103;72;21610;-74
2021/05/05 10:42:02;;;;;;;7.10;1.72;;;10.70;99.90;;;;;;1942130;73;21623;-76
2021/05/05 10:44:42;;;;;;;3.33;1.12;;;10.80;99.90;;;;;;1946522;72;21094;-75
2021/05/05 10:47:31;;;;;;;4.22;0.95;;;10.80;99.90;;;;;;1950941;72;21146;-76
2021/05/05 10:50:05;;;;;;;6.47;1.70;;;10.90;99.90;;;;;;1944573;72;21630;-75
2021/05/05 10:52:44;;;;;;;10.08;1.75;;;10.80;99.90;;;;;;1943846;73;21476;-75
2021/05/05 10:55:20;;;;;;;4.80;1.52;;;10.80;99.90;;;;;;1952947;72;21097;-73
2021/05/05 10:58:11;;;;;;;6.53;1.42;;;10.70;99.90;;;;;;1937924;73;21153;-73
2021/05/05 11:00:57;;;;;;;5.45;1.67;;;10.70;99.90;;;;;;1933150;72;21676;-74
2021/05/05 11:03:46;;;;;;;7.83;1.55;;;10.50;99.90;;;;;;1944504;72;21070;-75
2021/05/05 11:06:38;;;;;;;5.65;1.30;;;10.30;99.90;;;;;;1938259;72;21114;-77
2021/05/05 11:09:13;;;;;;;;;;;10.30;99.90;;;;;;1936405;73;21123;-79
2021/05/05 11:11:54;;;;;;;3.90;1.00;;;10.10;99.90;;;;;;1928806;73;20114;-75
2021/05/05 11:14:31;;;;;;;4.83;1.05;;;9.80;99.90;;;;;;1941173;72;22050;-79
2021/05/05 11:17:03;;;;;;;4.55;1.05;;;9.60;99.90;;;;;;1949918;72;21074;-75
2021/05/05 11:19:40;;;;;;;5.28;1.40;;;9.50;99.90;;;;;;1949711;73;21086;-74
2021/05/05 11:22:09;;;;;;;5.40;1.87;;;9.50;99.90;;;;;;1950554;72;21137;-76
2021/05/05 11:24:39;;;;;;;3.40;1.00;;;9.60;99.90;;;;;;1944266;72;21154;-74
2021/05/05 11:27:09;;;;;;;4.58;1.00;;;9.70;99.90;;;;;;1948487;72;21087;-74
2021/05/05 11:29:39;;;;;;;5.83;1.37;;;9.90;99.90;;;;;;1949519;73;21105;-74
2021/05/05 11:32:25;;;;;;;4.75;1.15;;;9.90;99.90;;;;;;1949143;72;21600;-74
2021/05/05 11:34:54;;;;;;;6.37;1.37;;;9.90;99.90;;;;;;1950433;72;21101;-77
2021/05/05 11:37:24;;;;;;;3.75;1.17;;;9.90;99.90;;;;;;1944708;72;21074;-76
2021/05/05 11:40:01;;;;;;;5.37;1.27;;;9.90;99.90;;;;;;1943997;72;21108;-75
2021/05/05 11:42:33;;;;;;;4.28;1.32;;;9.90;99.90;;;;;;1944635;72;21118;-75
2021/05/05 11:45:02;;;;;;;4.03;1.20;;;9.90;99.90;;;;;;1938880;72;21548;-73
2021/05/05 11:47:32;;;;;;;4.80;1.32;;;9.80;99.90;;;;;;1946749;72;21159;-75
2021/05/05 11:50:01;;;;;;;4.35;1.10;;;9.90;99.90;;;;;;1937095;73;21192;-75
2021/05/05 11:52:34;;;;;;;6.60;1.50;;;9.90;99.90;;;;;;1929974;72;21125;-73
2021/05/05 11:55:05;;;;;;;4.45;1.57;;;10.10;99.90;;;;;;1931755;73;21198;-74
2021/05/05 11:57:35;;;;;;;6.10;1.57;;;10.30;99.90;;;;;;1912107;73;21096;-74
2021/05/05 12:00:25;;;;;;;9.20;1.62;;;10.60;99.90;;;;;;1933503;73;21176;-72
2021/05/05 12:02:55;;;;;;;4.20;0.98;;;10.80;99.90;;;;;;1936632;73;21200;-71
2021/05/05 12:05:38;;;;;;;3.27;0.98;;;10.90;99.90;;;;;;1915792;72;21190;-71
2021/05/05 12:08:08;;;;;;;6.83;1.47;;;10.90;99.90;;;;;;1914460;73;22279;-72
2021/05/05 12:10:49;;;;;;;5.30;1.07;;;11.00;99.90;;;;;;1929873;73;21125;-75
2021/05/05 12:13:25;;;;;;;2.90;0.90;;;11.10;99.90;;;;;;1926974;73;21041;-75
2021/05/05 12:16:08;;;;;;;5.53;1.20;;;10.90;99.90;;;;;;1926941;73;21080;-75
2021/05/05 12:18:38;;;;;;;7.37;1.10;;;10.50;99.90;;;;;;1919940;73;21512;-75
2021/05/05 12:21:12;;;;;;;2.33;0.68;;;10.30;99.90;;;;;;1916771;73;21081;-74
2021/05/05 12:23:43;;;;;;;3.12;0.82;;;10.20;99.90;;;;;;1912323;73;21027;-74
2021/05/05 12:26:15;;;;;;;5.37;1.00;;;10.30;99.90;;;;;;1927466;73;21023;-75
2021/05/05 12:28:44;;;;;;;4.75;1.30;;;10.50;99.90;;;;;;1917165;73;21018;-73
2021/05/05 12:31:16;;;;;;;7.62;1.90;;;10.90;99.90;;;;;;1922241;73;21070;-74
2021/05/05 12:33:46;;;;;;;6.62;2.15;;;11.10;99.90;;;;;;1936287;73;21597;-74
2021/05/05 12:36:24;;;;;;;10.65;2.27;;;11.20;99.90;;;;;;1924195;73;21038;-74
2021/05/05 12:38:54;;;;;;;13.38;2.17;;;11.10;99.90;;;;;;1930097;73;21022;-76
2021/05/05 12:41:24;;;;;;;10.88;2.30;;;11.00;99.90;;;;;;1918219;73;21669;-76
2021/05/05 12:43:54;;;;;;;9.60;2.05;;;10.90;99.90;;;;;;1912264;73;21092;-73
2021/05/05 12:46:24;;;;;;;6.90;1.98;;;10.60;99.90;;;;;;1910347;73;21515;-73
2021/05/05 12:48:53;;;;;;;8.25;2.10;;;10.00;99.90;;;;;;1920753;73;21091;-75
2021/05/05 12:51:23;;;;;;;7.83;1.52;;;9.70;99.90;;;;;;1922452;73;21591;-75
2021/05/05 12:54:02;;;;;;;4.42;1.35;;;9.60;99.90;;;;;;1929210;73;21105;-75
2021/05/05 12:56:48;;;;;;;8.73;2.27;;;9.60;99.90;;;;;;1927657;73;21090;-74
2021/05/05 12:59:27;;;;;;;9.05;2.10;;;9.60;99.90;;;;;;1927690;73;21132;-74
2021/05/05 13:02:09;;;;;;;8.93;1.77;;;9.60;99.90;;;;;;1915942;73;21112;-73
2021/05/05 13:04:39;;;;;;;11.97;2.10;;;9.50;99.90;;;;;;1912752;73;21437;-73
2021/05/05 13:07:09;;;;;;;8.63;2.30;;;9.50;99.90;;;;;;1923648;73;21111;-73
2021/05/05 13:09:36;;;;;;;8.08;2.40;;;9.60;99.90;;;;;;1906092;73;21080;-73
2021/05/05 13:12:29;;;;;;;6.95;1.77;;;9.70;99.90;;;;;;1927153;73;21159;-73